sensor_id;sensor_type;location;lat;lon;timestamp;temperature;humidity
21744;DHT22;11034;48.556;9.342;2023-06-14T00:00:04;14.30;96.50
21744;DHT22;11034;48.556;9.342;2023-06-14T00:02:34;14.30;96.40
21744;DHT22;11034;48.556;9.342;2023-06-14T00:05:02;14.30;96.70
21744;DHT22;11034;48.556;9.342;2023-06-14T00:07:34;14.30;96.20
21744;DHT22;11034;48.556;9.342;2023-06-14T00:10:05;14.30;95.90
21744;DHT22;11034;48.556;9.342;2023-06-14T00:12:33;14.30;96.40
21744;DHT22;11034;48.556;9.342;2023-06-14T00:15:02;14.30;96.70
21744;DHT22;11034;48.556;9.342;2023-06-14T00:17:31;14.10;96.70
21744;DHT22;11034;48.556;9.342;2023-06-14T00:19:59;14.10;96.80
21744;DHT22;11034;48.556;9.342;2023-06-14T00:22:27;14.20;96.70
21744;DHT22;11034;48.556;9.342;2023-06-14T00:24:57;14.20;96.60
21744;DHT22;11034;48.556;9.342;2023-06-14T00:27:35;14.20;96.80
21744;DHT22;11034;48.556;9.342;2023-06-14T00:30:04;14.20;97.30
21744;DHT22;11034;48.556;9.342;2023-06-14T00:32:32;14.10;97.30
21744;DHT22;11034;48.556;9.342;2023-06-14T00:35:00;14.10;97.70
21744;DHT22;11034;48.556;9.342;2023-06-14T00:37:28;14.00;97.40
21744;DHT22;11034;48.556;9.342;2023-06-14T00:39:56;14.00;97.20
21744;DHT22;11034;48.556;9.342;2023-06-14T00:42:24;13.90;97.40
21744;DHT22;11034;48.556;9.342;2023-06-14T00:44:54;13.90;97.20
21744;DHT22;11034;48.556;9.342;2023-06-14T00:47:25;13.90;97.10
21744;DHT22;11034;48.556;9.342;2023-06-14T00:49:54;13.90;97.20
21744;DHT22;11034;48.556;9.342;2023-06-14T00:52:22;13.90;97.30
21744;DHT22;11034;48.556;9.342;2023-06-14T00:54:51;13.90;96.80
21744;DHT22;11034;48.556;9.342;2023-06-14T00:57:20;14.00;97.00
21744;DHT22;11034;48.556;9.342;2023-06-14T00:59:49;14.00;97.00
21744;DHT22;11034;48.556;9.342;2023-06-14T01:02:18;14.00;97.20
21744;DHT22;11034;48.556;9.342;2023-06-14T01:04:48;13.90;97.30
21744;DHT22;11034;48.556;9.342;2023-06-14T01:07:25;13.90;97.30
21744;DHT22;11034;48.556;9.342;2023-06-14T01:10:05;13.90;97.30
21744;DHT22;11034;48.556;9.342;2023-06-14T01:12:39;13.90;97.10
21744;DHT22;11034;48.556;9.342;2023-06-14T01:15:13;13.90;97.20
21744;DHT22;11034;48.556;9.342;2023-06-14T01:17:44;13.90;97.20
21744;DHT22;11034;48.556;9.342;2023-06-14T01:20:13;13.90;97.20
21744;DHT22;11034;48.556;9.342;2023-06-14T01:22:50;13.90;97.30
21744;DHT22;11034;48.556;9.342;2023-06-14T01:25:19;13.80;97.40
21744;DHT22;11034;48.556;9.342;2023-06-14T01:27:51;13.80;97.10
21744;DHT22;11034;48.556;9.342;2023-06-14T01:30:21;13.70;96.30
21744;DHT22;11034;48.556;9.342;2023-06-14T01:32:52;13.60;97.20
21744;DHT22;11034;48.556;9.342;2023-06-14T01:35:21;13.60;97.20
21744;DHT22;11034;48.556;9.342;2023-06-14T01:37:51;13.50;97.90
21744;DHT22;11034;48.556;9.342;2023-06-14T01:40:21;13.50;98.30
21744;DHT22;11034;48.556;9.342;2023-06-14T01:42:51;13.40;98.30
21744;DHT22;11034;48.556;9.342;2023-06-14T01:45:20;13.50;98.30
21744;DHT22;11034;48.556;9.342;2023-06-14T01:47:49;13.50;98.40
21744;DHT22;11034;48.556;9.342;2023-06-14T01:50:19;13.50;98.40
21744;DHT22;11034;48.556;9.342;2023-06-14T01:52:47;13.50;98.50
21744;DHT22;11034;48.556;9.342;2023-06-14T01:55:16;13.50;98.50
21744;DHT22;11034;48.556;9.342;2023-06-14T01:57:44;13.40;98.70
21744;DHT22;11034;48.556;9.342;2023-06-14T02:00:13;13.20;98.10
21744;DHT22;11034;48.556;9.342;2023-06-14T02:02:43;13.20;98.20
21744;DHT22;11034;48.556;9.342;2023-06-14T02:05:11;13.10;98.70
21744;DHT22;11034;48.556;9.342;2023-06-14T02:07:39;13.10;98.90
21744;DHT22;11034;48.556;9.342;2023-06-14T02:10:07;13.10;99.20
21744;DHT22;11034;48.556;9.342;2023-06-14T02:12:37;13.00;99.20
21744;DHT22;11034;48.556;9.342;2023-06-14T02:15:05;12.90;99.10
21744;DHT22;11034;48.556;9.342;2023-06-14T02:17:33;12.80;99.60
21744;DHT22;11034;48.556;9.342;2023-06-14T02:20:02;12.90;99.50
21744;DHT22;11034;48.556;9.342;2023-06-14T02:22:31;12.80;99.00
21744;DHT22;11034;48.556;9.342;2023-06-14T02:24:59;12.80;99.20
21744;DHT22;11034;48.556;9.342;2023-06-14T02:27:28;12.70;99.70
21744;DHT22;11034;48.556;9.342;2023-06-14T02:29:57;12.70;99.90
21744;DHT22;11034;48.556;9.342;2023-06-14T02:32:25;12.80;99.90
21744;DHT22;11034;48.556;9.342;2023-06-14T02:34:54;12.70;99.90
21744;DHT22;11034;48.556;9.342;2023-06-14T02:37:22;12.70;99.50
21744;DHT22;11034;48.556;9.342;2023-06-14T02:39:50;12.60;99.90
21744;DHT22;11034;48.556;9.342;2023-06-14T02:42:18;12.60;99.90
21744;DHT22;11034;48.556;9.342;2023-06-14T02:44:46;12.50;99.90
21744;DHT22;11034;48.556;9.342;2023-06-14T02:47:19;12.50;99.90
21744;DHT22;11034;48.556;9.342;2023-06-14T02:49:47;12.40;99.90
21744;DHT22;11034;48.556;9.342;2023-06-14T02:52:15;12.40;99.90
21744;DHT22;11034;48.556;9.342;2023-06-14T02:54:43;12.40;99.90
21744;DHT22;11034;48.556;9.342;2023-06-14T02:57:14;12.40;99.90
21744;DHT22;11034;48.556;9.342;2023-06-14T02:59:42;12.30;99.90
21744;DHT22;11034;48.556;9.342;2023-06-14T03:02:10;12.30;99.90
21744;DHT22;11034;48.556;9.342;2023-06-14T03:04:39;12.20;99.90
21744;DHT22;11034;48.556;9.342;2023-06-14T03:07:09;12.20;99.90
21744;DHT22;11034;48.556;9.342;2023-06-14T03:09:39;12.10;99.90
21744;DHT22;11034;48.556;9.342;2023-06-14T03:12:08;12.10;99.90
21744;DHT22;11034;48.556;9.342;2023-06-14T03:14:37;12.10;99.90
21744;DHT22;11034;48.556;9.342;2023-06-14T03:17:05;12.10;99.90
21744;DHT22;11034;48.556;9.342;2023-06-14T03:19:35;12.10;99.90
21744;DHT22;11034;48.556;9.342;2023-06-14T03:22:04;12.10;99.90
21744;DHT22;11034;48.556;9.342;2023-06-14T03:24:34;12.10;99.90
21744;DHT22;11034;48.556;9.342;2023-06-14T03:27:04;12.10;99.90
21744;DHT22;11034;48.556;9.342;2023-06-14T03:29:32;12.10;99.90
21744;DHT22;11034;48.556;9.342;2023-06-14T03:32:01;12.20;99.90
21744;DHT22;11034;48.556;9.342;2023-06-14T03:34:30;12.10;99.90
21744;DHT22;11034;48.556;9.342;2023-06-14T03:36:57;12.10;99.90
21744;DHT22;11034;48.556;9.342;2023-06-14T03:39:27;12.00;99.90
21744;DHT22;11034;48.556;9.342;2023-06-14T03:41:55;12.00;99.90
21744;DHT22;11034;48.556;9.342;2023-06-14T03:44:23;12.10;99.90
21744;DHT22;11034;48.556;9.342;2023-06-14T03:46:51;12.10;99.90
21744;DHT22;11034;48.556;9.342;2023-06-14T03:49:19;12.10;99.90
21744;DHT22;11034;48.556;9.342;2023-06-14T03:51:48;12.00;99.90
21744;DHT22;11034;48.556;9.342;2023-06-14T03:54:18;12.00;99.90
21744;DHT22;11034;48.556;9.342;2023-06-14T03:57:07;12.10;99.90
21744;DHT22;11034;48.556;9.342;2023-06-14T03:59:36;12.30;99.90
21744;DHT22;11034;48.556;9.342;2023-06-14T04:02:04;12.40;99.90
21744;DHT22;11034;48.556;9.342;2023-06-14T04:04:33;12.60;99.90
21744;DHT22;11034;48.556;9.342;2023-06-14T04:07:02;13.00;99.90
21744;DHT22;11034;48.556;9.342;2023-06-14T04:09:30;13.50;99.90
21744;DHT22;11034;48.556;9.342;2023-06-14T04:11:58;14.20;99.90
21744;DHT22;11034;48.556;9.342;2023-06-14T04:14:27;15.00;99.90
21744;DHT22;11034;48.556;9.342;2023-06-14T04:16:57;15.40;99.90
21744;DHT22;11034;48.556;9.342;2023-06-14T04:19:25;15.70;99.90
21744;DHT22;11034;48.556;9.342;2023-06-14T04:21:53;16.20;99.20
21744;DHT22;11034;48.556;9.342;2023-06-14T04:24:21;16.50;98.60
21744;DHT22;11034;48.556;9.342;2023-06-14T04:26:50;17.30;97.60
21744;DHT22;11034;48.556;9.342;2023-06-14T04:29:18;18.00;96.60
21744;DHT22;11034;48.556;9.342;2023-06-14T04:31:47;18.20;96.40
21744;DHT22;11034;48.556;9.342;2023-06-14T04:34:16;18.60;95.60
21744;DHT22;11034;48.556;9.342;2023-06-14T04:36:44;19.10;95.40
21744;DHT22;11034;48.556;9.342;2023-06-14T04:39:16;19.40;94.80
21744;DHT22;11034;48.556;9.342;2023-06-14T04:41:45;18.60;94.50
21744;DHT22;11034;48.556;9.342;2023-06-14T04:44:13;18.30;94.90
21744;DHT22;11034;48.556;9.342;2023-06-14T04:46:44;18.70;94.80
21744;DHT22;11034;48.556;9.342;2023-06-14T04:49:14;19.20;94.50
21744;DHT22;11034;48.556;9.342;2023-06-14T04:51:42;19.50;94.00
21744;DHT22;11034;48.556;9.342;2023-06-14T04:54:11;19.40;93.40
21744;DHT22;11034;48.556;9.342;2023-06-14T04:56:40;19.40;93.30
21744;DHT22;11034;48.556;9.342;2023-06-14T04:59:09;19.40;93.30
21744;DHT22;11034;48.556;9.342;2023-06-14T05:01:38;19.70;93.30
21744;DHT22;11034;48.556;9.342;2023-06-14T05:04:07;20.20;93.10
21744;DHT22;11034;48.556;9.342;2023-06-14T05:06:36;20.40;93.00
21744;DHT22;11034;48.556;9.342;2023-06-14T05:09:05;20.30;92.80
21744;DHT22;11034;48.556;9.342;2023-06-14T05:11:33;20.10;92.90
21744;DHT22;11034;48.556;9.342;2023-06-14T05:14:01;20.30;93.40
21744;DHT22;11034;48.556;9.342;2023-06-14T05:16:29;21.10;92.50
21744;DHT22;11034;48.556;9.342;2023-06-14T05:18:57;21.40;92.10
21744;DHT22;11034;48.556;9.342;2023-06-14T05:21:25;22.00;91.10
21744;DHT22;11034;48.556;9.342;2023-06-14T05:23:55;22.00;91.20
21744;DHT22;11034;48.556;9.342;2023-06-14T05:26:23;22.80;90.40
21744;DHT22;11034;48.556;9.342;2023-06-14T05:28:55;23.20;90.10
21744;DHT22;11034;48.556;9.342;2023-06-14T05:31:24;23.10;90.10
21744;DHT22;11034;48.556;9.342;2023-06-14T05:33:53;22.90;90.20
21744;DHT22;11034;48.556;9.342;2023-06-14T05:36:21;23.10;90.30
21744;DHT22;11034;48.556;9.342;2023-06-14T05:38:49;22.90;90.30
21744;DHT22;11034;48.556;9.342;2023-06-14T05:41:25;22.90;90.90
21744;DHT22;11034;48.556;9.342;2023-06-14T05:43:54;22.70;90.70
21744;DHT22;11034;48.556;9.342;2023-06-14T05:46:23;22.70;91.20
21744;DHT22;11034;48.556;9.342;2023-06-14T05:48:53;22.70;91.60
21744;DHT22;11034;48.556;9.342;2023-06-14T05:51:21;21.70;91.20
21744;DHT22;11034;48.556;9.342;2023-06-14T05:53:51;21.60;91.40
21744;DHT22;11034;48.556;9.342;2023-06-14T05:56:19;22.50;91.50
21744;DHT22;11034;48.556;9.342;2023-06-14T05:58:50;23.60;90.50
21744;DHT22;11034;48.556;9.342;2023-06-14T06:01:18;24.00;89.20
21744;DHT22;11034;48.556;9.342;2023-06-14T06:03:47;23.80;88.10
21744;DHT22;11034;48.556;9.342;2023-06-14T06:06:15;23.30;88.70
21744;DHT22;11034;48.556;9.342;2023-06-14T06:08:43;23.90;89.00
21744;DHT22;11034;48.556;9.342;2023-06-14T06:11:12;24.30;87.80
21744;DHT22;11034;48.556;9.342;2023-06-14T06:13:39;24.80;85.90
21744;DHT22;11034;48.556;9.342;2023-06-14T06:16:09;25.30;85.60
21744;DHT22;11034;48.556;9.342;2023-06-14T06:18:37;25.20;84.60
21744;DHT22;11034;48.556;9.342;2023-06-14T06:21:06;24.80;86.20
21744;DHT22;11034;48.556;9.342;2023-06-14T06:23:34;25.60;85.10
21744;DHT22;11034;48.556;9.342;2023-06-14T06:26:02;26.20;84.00
21744;DHT22;11034;48.556;9.342;2023-06-14T06:28:31;26.40;82.10
21744;DHT22;11034;48.556;9.342;2023-06-14T06:31:00;26.50;82.70
21744;DHT22;11034;48.556;9.342;2023-06-14T06:33:32;26.50;81.90
21744;DHT22;11034;48.556;9.342;2023-06-14T06:36:00;26.50;83.10
21744;DHT22;11034;48.556;9.342;2023-06-14T06:38:28;26.20;82.60
21744;DHT22;11034;48.556;9.342;2023-06-14T06:40:56;26.70;83.30
21744;DHT22;11034;48.556;9.342;2023-06-14T06:43:24;26.30;83.10
21744;DHT22;11034;48.556;9.342;2023-06-14T06:45:52;26.60;82.40
21744;DHT22;11034;48.556;9.342;2023-06-14T06:48:21;26.70;82.30
21744;DHT22;11034;48.556;9.342;2023-06-14T06:50:50;26.30;82.20
21744;DHT22;11034;48.556;9.342;2023-06-14T06:53:19;26.10;82.30
21744;DHT22;11034;48.556;9.342;2023-06-14T06:56:04;25.80;82.90
21744;DHT22;11034;48.556;9.342;2023-06-14T06:58:33;25.40;82.80
21744;DHT22;11034;48.556;9.342;2023-06-14T07:01:01;25.40;83.90
21744;DHT22;11034;48.556;9.342;2023-06-14T07:03:29;25.80;83.00
21744;DHT22;11034;48.556;9.342;2023-06-14T07:05:59;25.30;83.40
21744;DHT22;11034;48.556;9.342;2023-06-14T07:08:27;24.80;85.50
21744;DHT22;11034;48.556;9.342;2023-06-14T07:10:55;25.00;84.30
21744;DHT22;11034;48.556;9.342;2023-06-14T07:13:23;24.60;84.60
21744;DHT22;11034;48.556;9.342;2023-06-14T07:15:54;23.80;88.10
21744;DHT22;11034;48.556;9.342;2023-06-14T07:18:23;25.00;86.70
21744;DHT22;11034;48.556;9.342;2023-06-14T07:20:51;25.20;86.10
21744;DHT22;11034;48.556;9.342;2023-06-14T07:23:21;25.40;85.50
21744;DHT22;11034;48.556;9.342;2023-06-14T07:25:50;25.80;85.50
21744;DHT22;11034;48.556;9.342;2023-06-14T07:28:18;26.00;85.10
21744;DHT22;11034;48.556;9.342;2023-06-14T07:30:46;26.00;85.10
21744;DHT22;11034;48.556;9.342;2023-06-14T07:33:15;25.60;85.30
21744;DHT22;11034;48.556;9.342;2023-06-14T07:35:43;25.20;87.40
21744;DHT22;11034;48.556;9.342;2023-06-14T07:38:11;25.50;86.30
21744;DHT22;11034;48.556;9.342;2023-06-14T07:40:40;25.60;86.70
21744;DHT22;11034;48.556;9.342;2023-06-14T07:43:08;25.60;87.10
21744;DHT22;11034;48.556;9.342;2023-06-14T07:45:37;25.50;87.10
21744;DHT22;11034;48.556;9.342;2023-06-14T07:48:11;25.30;87.80
21744;DHT22;11034;48.556;9.342;2023-06-14T07:50:39;26.30;85.90
21744;DHT22;11034;48.556;9.342;2023-06-14T07:53:07;25.80;82.90
21744;DHT22;11034;48.556;9.342;2023-06-14T07:55:35;25.70;83.60
21744;DHT22;11034;48.556;9.342;2023-06-14T07:58:20;25.30;83.70
21744;DHT22;11034;48.556;9.342;2023-06-14T08:00:48;24.40;85.70
21744;DHT22;11034;48.556;9.342;2023-06-14T08:03:16;24.40;87.30
21744;DHT22;11034;48.556;9.342;2023-06-14T08:05:45;24.60;85.80
21744;DHT22;11034;48.556;9.342;2023-06-14T08:08:13;24.80;86.30
21744;DHT22;11034;48.556;9.342;2023-06-14T08:10:41;24.20;89.60
21744;DHT22;11034;48.556;9.342;2023-06-14T08:13:09;24.30;90.10
21744;DHT22;11034;48.556;9.342;2023-06-14T08:15:39;25.10;88.30
21744;DHT22;11034;48.556;9.342;2023-06-14T08:18:07;24.90;87.90
21744;DHT22;11034;48.556;9.342;2023-06-14T08:20:35;24.70;88.80
21744;DHT22;11034;48.556;9.342;2023-06-14T08:23:03;24.60;89.60
21744;DHT22;11034;48.556;9.342;2023-06-14T08:25:31;25.00;88.80
21744;DHT22;11034;48.556;9.342;2023-06-14T08:27:59;25.10;87.30
21744;DHT22;11034;48.556;9.342;2023-06-14T08:30:27;25.40;87.40
21744;DHT22;11034;48.556;9.342;2023-06-14T08:32:57;24.60;88.50
21744;DHT22;11034;48.556;9.342;2023-06-14T08:35:42;25.30;88.00
21744;DHT22;11034;48.556;9.342;2023-06-14T08:38:11;25.10;86.90
21744;DHT22;11034;48.556;9.342;2023-06-14T08:40:40;25.30;87.50
21744;DHT22;11034;48.556;9.342;2023-06-14T08:43:09;24.90;87.70
21744;DHT22;11034;48.556;9.342;2023-06-14T08:45:37;24.30;88.20
21744;DHT22;11034;48.556;9.342;2023-06-14T08:48:07;24.10;87.60
21744;DHT22;11034;48.556;9.342;2023-06-14T08:50:37;24.00;87.50
21744;DHT22;11034;48.556;9.342;2023-06-14T08:53:08;23.50;89.10
21744;DHT22;11034;48.556;9.342;2023-06-14T08:55:40;23.00;89.30
21744;DHT22;11034;48.556;9.342;2023-06-14T08:58:09;23.10;89.90
21744;DHT22;11034;48.556;9.342;2023-06-14T09:00:42;22.60;89.80
21744;DHT22;11034;48.556;9.342;2023-06-14T09:03:12;22.40;89.20
21744;DHT22;11034;48.556;9.342;2023-06-14T09:05:41;22.50;89.00
21744;DHT22;11034;48.556;9.342;2023-06-14T09:08:11;22.10;90.80
21744;DHT22;11034;48.556;9.342;2023-06-14T09:10:40;21.90;90.60
21744;DHT22;11034;48.556;9.342;2023-06-14T09:13:08;22.00;90.60
21744;DHT22;11034;48.556;9.342;2023-06-14T09:15:36;22.30;90.10
21744;DHT22;11034;48.556;9.342;2023-06-14T09:18:04;22.40;90.00
21744;DHT22;11034;48.556;9.342;2023-06-14T09:20:34;22.20;89.90
21744;DHT22;11034;48.556;9.342;2023-06-14T09:23:02;22.40;90.80
21744;DHT22;11034;48.556;9.342;2023-06-14T09:25:32;22.30;91.00
21744;DHT22;11034;48.556;9.342;2023-06-14T09:28:07;22.40;89.50
21744;DHT22;11034;48.556;9.342;2023-06-14T09:30:36;22.40;89.00
21744;DHT22;11034;48.556;9.342;2023-06-14T09:33:05;22.50;90.00
21744;DHT22;11034;48.556;9.342;2023-06-14T09:35:35;22.50;88.50
21744;DHT22;11034;48.556;9.342;2023-06-14T09:38:03;22.70;87.50
21744;DHT22;11034;48.556;9.342;2023-06-14T09:40:34;22.80;87.10
21744;DHT22;11034;48.556;9.342;2023-06-14T09:43:06;22.80;89.20
21744;DHT22;11034;48.556;9.342;2023-06-14T09:45:35;22.80;89.00
21744;DHT22;11034;48.556;9.342;2023-06-14T09:48:05;23.30;89.40
21744;DHT22;11034;48.556;9.342;2023-06-14T09:50:35;23.30;88.00
21744;DHT22;11034;48.556;9.342;2023-06-14T09:53:06;23.60;88.00
21744;DHT22;11034;48.556;9.342;2023-06-14T09:55:36;23.10;87.10
21744;DHT22;11034;48.556;9.342;2023-06-14T09:58:06;23.30;88.50
21744;DHT22;11034;48.556;9.342;2023-06-14T10:00:36;23.40;87.10
21744;DHT22;11034;48.556;9.342;2023-06-14T10:03:11;23.30;87.70
21744;DHT22;11034;48.556;9.342;2023-06-14T10:05:45;23.00;87.10
21744;DHT22;11034;48.556;9.342;2023-06-14T10:08:15;22.80;88.00
21744;DHT22;11034;48.556;9.342;2023-06-14T10:10:46;22.90;87.10
21744;DHT22;11034;48.556;9.342;2023-06-14T10:13:14;23.30;86.50
21744;DHT22;11034;48.556;9.342;2023-06-14T10:15:50;23.80;87.10
21744;DHT22;11034;48.556;9.342;2023-06-14T10:18:33;23.90;86.70
21744;DHT22;11034;48.556;9.342;2023-06-14T10:21:13;23.50;85.40
21744;DHT22;11034;48.556;9.342;2023-06-14T10:23:44;23.50;86.60
21744;DHT22;11034;48.556;9.342;2023-06-14T10:26:20;23.60;86.30
21744;DHT22;11034;48.556;9.342;2023-06-14T10:28:57;23.90;85.80
21744;DHT22;11034;48.556;9.342;2023-06-14T10:31:40;23.80;85.00
21744;DHT22;11034;48.556;9.342;2023-06-14T10:34:09;23.60;85.50
21744;DHT22;11034;48.556;9.342;2023-06-14T10:36:41;23.60;83.20
21744;DHT22;11034;48.556;9.342;2023-06-14T10:39:14;23.70;83.70
21744;DHT22;11034;48.556;9.342;2023-06-14T10:41:51;23.90;83.60
21744;DHT22;11034;48.556;9.342;2023-06-14T10:44:39;23.80;83.10
21744;DHT22;11034;48.556;9.342;2023-06-14T10:47:09;23.60;82.80
21744;DHT22;11034;48.556;9.342;2023-06-14T10:49:42;23.40;82.40
21744;DHT22;11034;48.556;9.342;2023-06-14T10:52:13;23.30;83.10
21744;DHT22;11034;48.556;9.342;2023-06-14T10:55:03;23.70;83.10
21744;DHT22;11034;48.556;9.342;2023-06-14T10:57:33;24.20;82.30
21744;DHT22;11034;48.556;9.342;2023-06-14T11:00:16;24.30;81.30
21744;DHT22;11034;48.556;9.342;2023-06-14T11:05:45;23.80;83.60
21744;DHT22;11034;48.556;9.342;2023-06-14T11:08:46;23.90;85.50
21744;DHT22;11034;48.556;9.342;2023-06-14T11:11:18;23.50;86.10
21744;DHT22;11034;48.556;9.342;2023-06-14T11:13:49;23.40;86.90
21744;DHT22;11034;48.556;9.342;2023-06-14T11:16:26;23.40;86.60
21744;DHT22;11034;48.556;9.342;2023-06-14T11:18:55;23.20;86.70
21744;DHT22;11034;48.556;9.342;2023-06-14T11:21:24;23.40;86.70
21744;DHT22;11034;48.556;9.342;2023-06-14T11:23:59;24.00;83.90
21744;DHT22;11034;48.556;9.342;2023-06-14T11:26:27;24.00;86.50
21744;DHT22;11034;48.556;9.342;2023-06-14T11:28:56;23.90;85.90
21744;DHT22;11034;48.556;9.342;2023-06-14T11:31:26;23.70;86.30
21744;DHT22;11034;48.556;9.342;2023-06-14T11:33:55;23.80;86.00
21744;DHT22;11034;48.556;9.342;2023-06-14T11:36:27;24.10;84.70
21744;DHT22;11034;48.556;9.342;2023-06-14T11:39:01;24.40;83.40
21744;DHT22;11034;48.556;9.342;2023-06-14T11:41:34;24.50;82.50
21744;DHT22;11034;48.556;9.342;2023-06-14T11:44:02;24.70;84.60
21744;DHT22;11034;48.556;9.342;2023-06-14T11:46:30;25.00;82.30
21744;DHT22;11034;48.556;9.342;2023-06-14T11:48:58;25.60;81.60
21744;DHT22;11034;48.556;9.342;2023-06-14T11:51:30;25.40;80.30
21744;DHT22;11034;48.556;9.342;2023-06-14T11:53:58;25.10;81.40
21744;DHT22;11034;48.556;9.342;2023-06-14T11:56:28;24.70;84.50
21744;DHT22;11034;48.556;9.342;2023-06-14T11:58:56;24.40;83.40
21744;DHT22;11034;48.556;9.342;2023-06-14T12:01:25;23.80;83.60
21744;DHT22;11034;48.556;9.342;2023-06-14T12:03:54;23.70;84.10
21744;DHT22;11034;48.556;9.342;2023-06-14T12:06:26;24.00;83.70
21744;DHT22;11034;48.556;9.342;2023-06-14T12:08:56;24.30;82.10
21744;DHT22;11034;48.556;9.342;2023-06-14T12:11:24;24.40;83.10
21744;DHT22;11034;48.556;9.342;2023-06-14T12:13:57;24.40;85.50
21744;DHT22;11034;48.556;9.342;2023-06-14T12:16:30;24.40;83.40
21744;DHT22;11034;48.556;9.342;2023-06-14T12:19:09;24.40;83.40
21744;DHT22;11034;48.556;9.342;2023-06-14T12:21:38;24.20;81.50
21744;DHT22;11034;48.556;9.342;2023-06-14T12:24:08;24.60;82.90
21744;DHT22;11034;48.556;9.342;2023-06-14T12:26:39;25.20;84.00
21744;DHT22;11034;48.556;9.342;2023-06-14T12:29:09;25.10;84.60
21744;DHT22;11034;48.556;9.342;2023-06-14T12:31:39;24.90;84.40
21744;DHT22;11034;48.556;9.342;2023-06-14T12:34:07;25.10;83.00
21744;DHT22;11034;48.556;9.342;2023-06-14T12:36:35;24.70;83.70
21744;DHT22;11034;48.556;9.342;2023-06-14T12:39:08;24.00;84.90
21744;DHT22;11034;48.556;9.342;2023-06-14T12:41:36;23.50;85.10
21744;DHT22;11034;48.556;9.342;2023-06-14T12:44:04;23.60;85.70
21744;DHT22;11034;48.556;9.342;2023-06-14T12:46:34;23.80;83.50
21744;DHT22;11034;48.556;9.342;2023-06-14T12:49:03;24.00;84.20
21744;DHT22;11034;48.556;9.342;2023-06-14T12:51:32;23.90;83.80
21744;DHT22;11034;48.556;9.342;2023-06-14T12:54:00;24.00;82.70
21744;DHT22;11034;48.556;9.342;2023-06-14T12:56:28;24.00;84.10
21744;DHT22;11034;48.556;9.342;2023-06-14T12:58:56;24.20;82.20
21744;DHT22;11034;48.556;9.342;2023-06-14T13:01:24;24.20;78.60
21744;DHT22;11034;48.556;9.342;2023-06-14T13:03:54;24.30;80.60
21744;DHT22;11034;48.556;9.342;2023-06-14T13:06:22;24.70;79.00
21744;DHT22;11034;48.556;9.342;2023-06-14T13:08:51;25.00;80.20
21744;DHT22;11034;48.556;9.342;2023-06-14T13:11:21;25.20;79.60
21744;DHT22;11034;48.556;9.342;2023-06-14T13:13:49;25.40;80.40
21744;DHT22;11034;48.556;9.342;2023-06-14T13:16:17;25.20;79.80
21744;DHT22;11034;48.556;9.342;2023-06-14T13:18:45;25.10;81.90
21744;DHT22;11034;48.556;9.342;2023-06-14T13:21:15;24.80;83.60
21744;DHT22;11034;48.556;9.342;2023-06-14T13:23:43;24.70;83.40
21744;DHT22;11034;48.556;9.342;2023-06-14T13:26:11;24.40;83.20
21744;DHT22;11034;48.556;9.342;2023-06-14T13:28:39;24.10;83.50
21744;DHT22;11034;48.556;9.342;2023-06-14T13:31:07;24.00;83.70
21744;DHT22;11034;48.556;9.342;2023-06-14T13:33:35;24.20;84.80
21744;DHT22;11034;48.556;9.342;2023-06-14T13:36:04;24.50;84.90
21744;DHT22;11034;48.556;9.342;2023-06-14T13:38:33;24.20;85.50
21744;DHT22;11034;48.556;9.342;2023-06-14T13:41:01;23.80;83.50
21744;DHT22;11034;48.556;9.342;2023-06-14T13:43:29;23.90;85.00
21744;DHT22;11034;48.556;9.342;2023-06-14T13:45:57;24.10;82.90
21744;DHT22;11034;48.556;9.342;2023-06-14T13:48:25;24.30;82.00
21744;DHT22;11034;48.556;9.342;2023-06-14T13:50:53;24.60;83.50
21744;DHT22;11034;48.556;9.342;2023-06-14T13:53:21;24.90;82.40
21744;DHT22;11034;48.556;9.342;2023-06-14T13:55:51;24.80;83.10
21744;DHT22;11034;48.556;9.342;2023-06-14T13:58:19;24.60;81.60
21744;DHT22;11034;48.556;9.342;2023-06-14T14:00:47;24.30;81.90
21744;DHT22;11034;48.556;9.342;2023-06-14T14:03:15;24.40;82.10
21744;DHT22;11034;48.556;9.342;2023-06-14T14:05:43;24.40;82.50
21744;DHT22;11034;48.556;9.342;2023-06-14T14:08:11;24.60;81.50
21744;DHT22;11034;48.556;9.342;2023-06-14T14:10:39;24.70;81.60
21744;DHT22;11034;48.556;9.342;2023-06-14T14:13:09;24.80;80.20
21744;DHT22;11034;48.556;9.342;2023-06-14T14:15:38;24.80;80.60
21744;DHT22;11034;48.556;9.342;2023-06-14T14:18:06;24.80;82.30
21744;DHT22;11034;48.556;9.342;2023-06-14T14:20:34;24.60;83.30
21744;DHT22;11034;48.556;9.342;2023-06-14T14:23:02;24.40;83.50
21744;DHT22;11034;48.556;9.342;2023-06-14T14:25:30;24.20;83.30
21744;DHT22;11034;48.556;9.342;2023-06-14T14:27:58;24.10;83.80
21744;DHT22;11034;48.556;9.342;2023-06-14T14:30:27;24.40;84.20
21744;DHT22;11034;48.556;9.342;2023-06-14T14:32:55;24.70;83.30
21744;DHT22;11034;48.556;9.342;2023-06-14T14:35:23;24.60;83.10
21744;DHT22;11034;48.556;9.342;2023-06-14T14:37:57;24.60;81.90
21744;DHT22;11034;48.556;9.342;2023-06-14T14:40:25;24.50;82.80
21744;DHT22;11034;48.556;9.342;2023-06-14T14:42:53;24.60;82.50
21744;DHT22;11034;48.556;9.342;2023-06-14T14:45:21;24.30;82.40
21744;DHT22;11034;48.556;9.342;2023-06-14T14:47:50;24.20;82.30
21744;DHT22;11034;48.556;9.342;2023-06-14T14:50:21;24.00;84.50
21744;DHT22;11034;48.556;9.342;2023-06-14T14:52:49;24.30;84.70
21744;DHT22;11034;48.556;9.342;2023-06-14T14:55:18;24.40;85.00
21744;DHT22;11034;48.556;9.342;2023-06-14T14:57:46;24.30;84.10
21744;DHT22;11034;48.556;9.342;2023-06-14T15:00:15;24.20;84.80
21744;DHT22;11034;48.556;9.342;2023-06-14T15:02:43;24.30;84.30
21744;DHT22;11034;48.556;9.342;2023-06-14T15:05:13;24.30;83.20
21744;DHT22;11034;48.556;9.342;2023-06-14T15:07:41;24.50;83.20
21744;DHT22;11034;48.556;9.342;2023-06-14T15:10:09;24.50;84.30
21744;DHT22;11034;48.556;9.342;2023-06-14T15:12:37;24.40;83.30
21744;DHT22;11034;48.556;9.342;2023-06-14T15:15:05;24.20;83.60
21744;DHT22;11034;48.556;9.342;2023-06-14T15:17:34;24.30;83.50
21744;DHT22;11034;48.556;9.342;2023-06-14T15:20:02;24.50;84.20
21744;DHT22;11034;48.556;9.342;2023-06-14T15:22:32;24.40;84.10
21744;DHT22;11034;48.556;9.342;2023-06-14T15:25:00;24.40;83.80
21744;DHT22;11034;48.556;9.342;2023-06-14T15:27:29;24.40;83.50
21744;DHT22;11034;48.556;9.342;2023-06-14T15:29:57;24.50;83.20
21744;DHT22;11034;48.556;9.342;2023-06-14T15:32:25;24.40;83.70
21744;DHT22;11034;48.556;9.342;2023-06-14T15:34:53;24.40;82.80
21744;DHT22;11034;48.556;9.342;2023-06-14T15:37:21;24.70;83.30
21744;DHT22;11034;48.556;9.342;2023-06-14T15:39:50;24.40;83.40
21744;DHT22;11034;48.556;9.342;2023-06-14T15:42:18;24.40;83.50
21744;DHT22;11034;48.556;9.342;2023-06-14T15:44:46;24.50;83.80
21744;DHT22;11034;48.556;9.342;2023-06-14T15:47:15;24.50;83.60